VOZ580 YPAD-YSCB
Flight info
| Callsign | VOZ580 |
|---|---|
| Flight time | 1h 21m |
| Altitude | 37000 |
| Route | AD V255 BENDO H36 NONUP J142 CB |
| Aircraft | B737/M-SDE2E3FGHIRWXY/LB1 |
Departure
| Time | 2026-05-05 18:26 |
|---|---|
| Airport | Adelaide International Airport (YPAD) |
Arrival
| Time | 2026-05-05 19:47 |
|---|---|
| Airport | Canberra Airport (YSCB) |
| Time | Latitude | Longitude | Altitude | Speed | Heading |
|---|---|---|---|---|---|
| 2026-05-05 18:02 | -34.93830 | 138.53994 | 26 ft | 0 kts | 320° |
| 2026-05-05 18:18 | -34.93841 | 138.54005 | 30 ft | 4 kts | 320° |
| 2026-05-05 18:19 | -34.93862 | 138.54027 | 27 ft | 4 kts | 316° |
| 2026-05-05 18:19 | -34.93879 | 138.54051 | 30 ft | 4 kts | 290° |
| 2026-05-05 18:19 | -34.93882 | 138.54066 | 30 ft | 0 kts | 269° |
| 2026-05-05 18:22 | -34.93882 | 138.54065 | 30 ft | 0 kts | 265° |
| 2026-05-05 18:23 | -34.93886 | 138.54060 | 29 ft | 1 kts | 227° |
| 2026-05-05 18:23 | -34.93920 | 138.54023 | 26 ft | 12 kts | 225° |
| 2026-05-05 18:23 | -34.93962 | 138.53964 | 27 ft | 10 kts | 230° |
| 2026-05-05 18:23 | -34.94006 | 138.53900 | 29 ft | 10 kts | 229° |
| 2026-05-05 18:24 | -34.94066 | 138.53898 | 26 ft | 9 kts | 147° |
| 2026-05-05 18:24 | -34.94116 | 138.53946 | 28 ft | 9 kts | 141° |
| 2026-05-05 18:24 | -34.94157 | 138.53986 | 25 ft | 4 kts | 141° |
| 2026-05-05 18:24 | -34.94163 | 138.53992 | 23 ft | 1 kts | 141° |
| 2026-05-05 18:25 | -34.94183 | 138.54012 | 27 ft | 7 kts | 141° |
| 2026-05-05 18:25 | -34.94197 | 138.54026 | 26 ft | 9 kts | 142° |
| 2026-05-05 18:25 | -34.94303 | 138.53976 | 25 ft | 30 kts | 231° |
| 2026-05-05 18:25 | -34.94606 | 138.53536 | 20 ft | 104 kts | 230° |
| 2026-05-05 18:26 | -34.95206 | 138.52663 | 22 ft | 162 kts | 230° |
| 2026-05-05 18:26 | -34.96002 | 138.51502 | 334 ft | 186 kts | 229° |
| 2026-05-05 18:26 | -34.96840 | 138.50251 | 1010 ft | 195 kts | 231° |
| 2026-05-05 18:26 | -34.97687 | 138.49031 | 2023 ft | 184 kts | 231° |
| 2026-05-05 18:27 | -34.98535 | 138.47809 | 2670 ft | 195 kts | 231° |
| 2026-05-05 18:27 | -34.99461 | 138.46467 | 2943 ft | 221 kts | 231° |
| 2026-05-05 18:27 | -35.00508 | 138.44939 | 3268 ft | 245 kts | 231° |
| 2026-05-05 18:27 | -35.01625 | 138.43338 | 4034 ft | 251 kts | 226° |
| 2026-05-05 18:28 | -35.04880 | 138.42097 | 4960 ft | 260 kts | 169° |
| 2026-05-05 18:28 | -35.06539 | 138.43019 | 5009 ft | 267 kts | 148° |
| 2026-05-05 18:28 | -35.08036 | 138.44377 | 5022 ft | 270 kts | 144° |
| 2026-05-05 18:29 | -35.09500 | 138.45844 | 5368 ft | 277 kts | 136° |
| 2026-05-05 18:29 | -35.10489 | 138.47857 | 6320 ft | 280 kts | 108° |
| 2026-05-05 18:29 | -35.10694 | 138.50206 | 7183 ft | 286 kts | 88° |
| 2026-05-05 18:29 | -35.10549 | 138.52645 | 8023 ft | 291 kts | 85° |
| 2026-05-05 18:30 | -35.10427 | 138.54310 | 8606 ft | 294 kts | 84° |
| 2026-05-05 18:30 | -35.10237 | 138.56822 | 9476 ft | 299 kts | 84° |
| 2026-05-05 18:30 | -35.10001 | 138.60225 | 10460 ft | 311 kts | 84° |
| 2026-05-05 18:30 | -35.09880 | 138.62052 | 10659 ft | 328 kts | 84° |
| 2026-05-05 18:31 | -35.09697 | 138.64877 | 11140 ft | 344 kts | 85° |
| 2026-05-05 18:31 | -35.09506 | 138.67859 | 11920 ft | 350 kts | 84° |
| 2026-05-05 18:31 | -35.09319 | 138.70806 | 12784 ft | 354 kts | 84° |
| 2026-05-05 18:31 | -35.09127 | 138.73821 | 13639 ft | 359 kts | 84° |
| 2026-05-05 18:32 | -35.08931 | 138.76882 | 14458 ft | 364 kts | 84° |
| 2026-05-05 18:32 | -35.08731 | 138.79993 | 15259 ft | 369 kts | 84° |
| 2026-05-05 18:32 | -35.08528 | 138.83136 | 16091 ft | 373 kts | 85° |
| 2026-05-05 18:32 | -35.08323 | 138.86310 | 16930 ft | 377 kts | 85° |
| 2026-05-05 18:33 | -35.08114 | 138.89514 | 17733 ft | 382 kts | 85° |
| 2026-05-05 18:33 | -35.07900 | 138.92770 | 18519 ft | 387 kts | 85° |
| 2026-05-05 18:33 | -35.07683 | 138.96070 | 19197 ft | 392 kts | 84° |
| 2026-05-05 18:33 | -35.07461 | 138.99407 | 19874 ft | 397 kts | 84° |
| 2026-05-05 18:34 | -35.07236 | 139.02790 | 20548 ft | 402 kts | 84° |
| 2026-05-05 18:34 | -35.07008 | 139.06216 | 21223 ft | 407 kts | 84° |
| 2026-05-05 18:34 | -35.06775 | 139.09690 | 21891 ft | 413 kts | 84° |
| 2026-05-05 18:34 | -35.06540 | 139.13201 | 22539 ft | 418 kts | 84° |
| 2026-05-05 18:35 | -35.06299 | 139.16760 | 23179 ft | 423 kts | 84° |
| 2026-05-05 18:35 | -35.06405 | 139.20310 | 23752 ft | 431 kts | 102° |
| 2026-05-05 18:35 | -35.07434 | 139.23744 | 24300 ft | 434 kts | 121° |
| 2026-05-05 18:35 | -35.09157 | 139.26774 | 24918 ft | 435 kts | 128° |
| 2026-05-05 18:36 | -35.11013 | 139.29702 | 25465 ft | 438 kts | 129° |
| 2026-05-05 18:36 | -35.12903 | 139.32639 | 26009 ft | 441 kts | 129° |
| 2026-05-05 18:36 | -35.14794 | 139.35611 | 26527 ft | 445 kts | 129° |
| 2026-05-05 18:36 | -35.16683 | 139.38628 | 27059 ft | 448 kts | 128° |
| 2026-05-05 18:37 | -35.18568 | 139.41674 | 27577 ft | 451 kts | 128° |
| 2026-05-05 18:37 | -35.20460 | 139.44749 | 28076 ft | 454 kts | 128° |
| 2026-05-05 18:37 | -35.22366 | 139.47851 | 28568 ft | 458 kts | 127° |
| 2026-05-05 18:37 | -35.23961 | 139.51230 | 29001 ft | 463 kts | 110° |
| 2026-05-05 18:38 | -35.24691 | 139.55058 | 29473 ft | 464 kts | 94° |
| 2026-05-05 18:38 | -35.24953 | 139.59009 | 29965 ft | 466 kts | 92° |
| 2026-05-05 18:38 | -35.25145 | 139.62981 | 30383 ft | 470 kts | 92° |
| 2026-05-05 18:38 | -35.25318 | 139.66989 | 30725 ft | 473 kts | 91° |
| 2026-05-05 18:39 | -35.25496 | 139.71020 | 31057 ft | 476 kts | 92° |
| 2026-05-05 18:39 | -35.25689 | 139.75078 | 31389 ft | 479 kts | 92° |
| 2026-05-05 18:39 | -35.25895 | 139.79155 | 31711 ft | 482 kts | 92° |
| 2026-05-05 18:39 | -35.26112 | 139.83253 | 32037 ft | 484 kts | 92° |
| 2026-05-05 18:40 | -35.26335 | 139.87364 | 32461 ft | 483 kts | 92° |
| 2026-05-05 18:40 | -35.26560 | 139.91462 | 32933 ft | 482 kts | 92° |
| 2026-05-05 18:40 | -35.26784 | 139.95539 | 33372 ft | 481 kts | 92° |
| 2026-05-05 18:40 | -35.27006 | 139.99621 | 33748 ft | 481 kts | 92° |
| 2026-05-05 18:41 | -35.27226 | 140.03704 | 34114 ft | 481 kts | 92° |
| 2026-05-05 18:41 | -35.27445 | 140.07791 | 34472 ft | 481 kts | 92° |
| 2026-05-05 18:41 | -35.27659 | 140.11827 | 34813 ft | 480 kts | 92° |
| 2026-05-05 18:41 | -35.27873 | 140.15897 | 35121 ft | 480 kts | 92° |
| 2026-05-05 18:42 | -35.28086 | 140.19983 | 35417 ft | 480 kts | 92° |
| 2026-05-05 18:42 | -35.28297 | 140.24053 | 35713 ft | 480 kts | 92° |
| 2026-05-05 18:42 | -35.28507 | 140.28129 | 36004 ft | 479 kts | 92° |
| 2026-05-05 18:42 | -35.28715 | 140.32189 | 36320 ft | 478 kts | 92° |
| 2026-05-05 18:43 | -35.28922 | 140.36249 | 36641 ft | 477 kts | 92° |
| 2026-05-05 18:43 | -35.29126 | 140.40300 | 36918 ft | 477 kts | 92° |
| 2026-05-05 18:43 | -35.29330 | 140.44367 | 37173 ft | 478 kts | 92° |
| 2026-05-05 18:43 | -35.29533 | 140.48440 | 37243 ft | 482 kts | 92° |
| 2026-05-05 18:44 | -35.29938 | 140.56655 | 37238 ft | 482 kts | 92° |
| 2026-05-05 18:44 | -35.30333 | 140.64751 | 37232 ft | 476 kts | 92° |
| 2026-05-05 18:45 | -35.30721 | 140.72828 | 37245 ft | 475 kts | 91° |
| 2026-05-05 18:45 | -35.31102 | 140.80895 | 37240 ft | 474 kts | 91° |
| 2026-05-05 18:46 | -35.31478 | 140.88959 | 37229 ft | 474 kts | 91° |
| 2026-05-05 18:46 | -35.31848 | 140.96997 | 37239 ft | 474 kts | 91° |
| 2026-05-05 18:47 | -35.32215 | 141.05090 | 37246 ft | 474 kts | 91° |
| 2026-05-05 18:47 | -35.32575 | 141.13152 | 37241 ft | 475 kts | 91° |
| 2026-05-05 18:48 | -35.32929 | 141.21195 | 37238 ft | 476 kts | 91° |
| 2026-05-05 18:48 | -35.33280 | 141.29297 | 37244 ft | 477 kts | 91° |
| 2026-05-05 18:49 | -35.33626 | 141.37408 | 37237 ft | 477 kts | 91° |
| 2026-05-05 18:49 | -35.33966 | 141.45524 | 37224 ft | 478 kts | 91° |
| 2026-05-05 18:50 | -35.34303 | 141.53663 | 37236 ft | 478 kts | 91° |
| 2026-05-05 18:50 | -35.34633 | 141.61795 | 37241 ft | 478 kts | 91° |
| 2026-05-05 18:51 | -35.34958 | 141.69927 | 37235 ft | 478 kts | 91° |
| 2026-05-05 18:51 | -35.35278 | 141.78060 | 37238 ft | 478 kts | 91° |
| 2026-05-05 18:52 | -35.35590 | 141.86137 | 37234 ft | 478 kts | 91° |
| 2026-05-05 18:52 | -35.35898 | 141.94260 | 37238 ft | 477 kts | 91° |
| 2026-05-05 18:53 | -35.36201 | 142.02391 | 37236 ft | 477 kts | 90° |
| 2026-05-05 18:53 | -35.36498 | 142.10519 | 37228 ft | 477 kts | 90° |
| 2026-05-05 18:54 | -35.36790 | 142.18639 | 37238 ft | 476 kts | 90° |
| 2026-05-05 18:54 | -35.37076 | 142.26752 | 37241 ft | 476 kts | 90° |
| 2026-05-05 18:55 | -35.37357 | 142.34863 | 37234 ft | 476 kts | 90° |
| 2026-05-05 18:55 | -35.37632 | 142.42973 | 37234 ft | 476 kts | 90° |
| 2026-05-05 18:56 | -35.37901 | 142.51080 | 37234 ft | 476 kts | 90° |
| 2026-05-05 18:56 | -35.38164 | 142.59133 | 37232 ft | 476 kts | 90° |
| 2026-05-05 18:57 | -35.38423 | 142.67246 | 37223 ft | 476 kts | 90° |
| 2026-05-05 18:57 | -35.38676 | 142.75346 | 37236 ft | 476 kts | 90° |
| 2026-05-05 18:58 | -35.38923 | 142.83447 | 37233 ft | 476 kts | 90° |
| 2026-05-05 18:58 | -35.39166 | 142.91547 | 37236 ft | 476 kts | 90° |
| 2026-05-05 18:59 | -35.39402 | 142.99654 | 37232 ft | 476 kts | 90° |
| 2026-05-05 18:59 | -35.39634 | 143.07766 | 37233 ft | 476 kts | 90° |
| 2026-05-05 19:00 | -35.39860 | 143.15874 | 37237 ft | 476 kts | 90° |
| 2026-05-05 19:00 | -35.40080 | 143.23944 | 37238 ft | 476 kts | 90° |
| 2026-05-05 19:01 | -35.40295 | 143.32057 | 37228 ft | 477 kts | 90° |
| 2026-05-05 19:01 | -35.40506 | 143.40177 | 37234 ft | 477 kts | 90° |
| 2026-05-05 19:02 | -35.40710 | 143.48296 | 37232 ft | 477 kts | 90° |
| 2026-05-05 19:02 | -35.40910 | 143.56434 | 37231 ft | 477 kts | 90° |
| 2026-05-05 19:03 | -35.41104 | 143.64563 | 37231 ft | 477 kts | 90° |
| 2026-05-05 19:03 | -35.41293 | 143.72691 | 37231 ft | 477 kts | 90° |
| 2026-05-05 19:04 | -35.41476 | 143.80812 | 37230 ft | 477 kts | 90° |
| 2026-05-05 19:04 | -35.41654 | 143.88943 | 37232 ft | 477 kts | 90° |
| 2026-05-05 19:05 | -35.41826 | 143.97069 | 37229 ft | 476 kts | 90° |
| 2026-05-05 19:05 | -35.41993 | 144.05198 | 37229 ft | 476 kts | 90° |
| 2026-05-05 19:06 | -35.42154 | 144.13308 | 37229 ft | 476 kts | 90° |
| 2026-05-05 19:06 | -35.42310 | 144.21442 | 37231 ft | 476 kts | 90° |
| 2026-05-05 19:07 | -35.42459 | 144.29501 | 37232 ft | 476 kts | 90° |
| 2026-05-05 19:07 | -35.42604 | 144.37618 | 37232 ft | 476 kts | 90° |
| 2026-05-05 19:08 | -35.42743 | 144.45737 | 37231 ft | 476 kts | 89° |
| 2026-05-05 19:08 | -35.42877 | 144.53858 | 37231 ft | 476 kts | 90° |
| 2026-05-05 19:09 | -35.43006 | 144.61975 | 37225 ft | 476 kts | 89° |
| 2026-05-05 19:09 | -35.43129 | 144.70082 | 37225 ft | 476 kts | 89° |
| 2026-05-05 19:10 | -35.43246 | 144.78183 | 37226 ft | 476 kts | 89° |
| 2026-05-05 19:10 | -35.43358 | 144.86290 | 37226 ft | 476 kts | 89° |
| 2026-05-05 19:11 | -35.43465 | 144.94412 | 37229 ft | 475 kts | 89° |
| 2026-05-05 19:11 | -35.43566 | 145.02470 | 37230 ft | 475 kts | 89° |
| 2026-05-05 19:12 | -35.43662 | 145.10587 | 37225 ft | 475 kts | 89° |
| 2026-05-05 19:12 | -35.43752 | 145.18695 | 37226 ft | 475 kts | 89° |
| 2026-05-05 19:13 | -35.43837 | 145.26802 | 37219 ft | 475 kts | 89° |
| 2026-05-05 19:13 | -35.43917 | 145.34903 | 37224 ft | 475 kts | 89° |
| 2026-05-05 19:14 | -35.43991 | 145.43007 | 37221 ft | 475 kts | 89° |
| 2026-05-05 19:14 | -35.44059 | 145.51117 | 37215 ft | 475 kts | 89° |
| 2026-05-05 19:15 | -35.44123 | 145.59226 | 37221 ft | 476 kts | 89° |
| 2026-05-05 19:15 | -35.44181 | 145.67340 | 37220 ft | 476 kts | 89° |
| 2026-05-05 19:16 | -35.44233 | 145.75460 | 37223 ft | 476 kts | 89° |
| 2026-05-05 19:16 | -35.44280 | 145.83567 | 37223 ft | 476 kts | 89° |
| 2026-05-05 19:17 | -35.44316 | 145.90321 | 37223 ft | 476 kts | 89° |
| 2026-05-05 19:17 | -35.44358 | 145.99763 | 37224 ft | 476 kts | 89° |
| 2026-05-05 19:18 | -35.44389 | 146.07886 | 37225 ft | 476 kts | 89° |
| 2026-05-05 19:18 | -35.44415 | 146.16012 | 37223 ft | 476 kts | 89° |
| 2026-05-05 19:19 | -35.44432 | 146.22765 | 37226 ft | 476 kts | 89° |
| 2026-05-05 19:19 | -35.44447 | 146.30883 | 37226 ft | 476 kts | 89° |
| 2026-05-05 19:20 | -35.44457 | 146.39005 | 37223 ft | 476 kts | 89° |
| 2026-05-05 19:20 | -35.44462 | 146.47131 | 37223 ft | 476 kts | 89° |
| 2026-05-05 19:21 | -35.44461 | 146.55261 | 37211 ft | 476 kts | 89° |
| 2026-05-05 19:21 | -35.44455 | 146.63392 | 37227 ft | 476 kts | 89° |
| 2026-05-05 19:22 | -35.44443 | 146.71460 | 37231 ft | 476 kts | 89° |
| 2026-05-05 19:22 | -35.44427 | 146.79570 | 37226 ft | 476 kts | 89° |
| 2026-05-05 19:23 | -35.44405 | 146.87687 | 37230 ft | 476 kts | 89° |
| 2026-05-05 19:23 | -35.44376 | 146.95805 | 37101 ft | 478 kts | 89° |
| 2026-05-05 19:24 | -35.44358 | 146.99911 | 36514 ft | 482 kts | 89° |
| 2026-05-05 19:24 | -35.44339 | 147.04000 | 35915 ft | 480 kts | 89° |
| 2026-05-05 19:24 | -35.44318 | 147.08094 | 35226 ft | 480 kts | 89° |
| 2026-05-05 19:24 | -35.44297 | 147.12177 | 34732 ft | 476 kts | 89° |
| 2026-05-05 19:25 | -35.44275 | 147.16218 | 34228 ft | 472 kts | 90° |
| 2026-05-05 19:25 | -35.44252 | 147.20222 | 33670 ft | 467 kts | 90° |
| 2026-05-05 19:25 | -35.44227 | 147.24191 | 33150 ft | 463 kts | 89° |
| 2026-05-05 19:25 | -35.44202 | 147.28113 | 32665 ft | 457 kts | 89° |
| 2026-05-05 19:26 | -35.44176 | 147.32006 | 32176 ft | 453 kts | 89° |
| 2026-05-05 19:26 | -35.44148 | 147.35844 | 31705 ft | 449 kts | 89° |
| 2026-05-05 19:26 | -35.44120 | 147.39652 | 31248 ft | 445 kts | 89° |
| 2026-05-05 19:26 | -35.44091 | 147.43431 | 30794 ft | 440 kts | 89° |
| 2026-05-05 19:27 | -35.44060 | 147.47169 | 30337 ft | 437 kts | 89° |
| 2026-05-05 19:27 | -35.44030 | 147.50877 | 29803 ft | 433 kts | 89° |
| 2026-05-05 19:27 | -35.43998 | 147.54540 | 29314 ft | 427 kts | 89° |
| 2026-05-05 19:27 | -35.43966 | 147.58155 | 28842 ft | 422 kts | 89° |
| 2026-05-05 19:28 | -35.43933 | 147.61727 | 28369 ft | 417 kts | 89° |
| 2026-05-05 19:28 | -35.43899 | 147.65258 | 27888 ft | 412 kts | 89° |
| 2026-05-05 19:28 | -35.43865 | 147.68704 | 27447 ft | 407 kts | 89° |
| 2026-05-05 19:28 | -35.43830 | 147.72200 | 26967 ft | 403 kts | 89° |
| 2026-05-05 19:29 | -35.43794 | 147.75621 | 26507 ft | 398 kts | 89° |
| 2026-05-05 19:29 | -35.43758 | 147.79004 | 26042 ft | 395 kts | 89° |
| 2026-05-05 19:29 | -35.43721 | 147.82344 | 25593 ft | 391 kts | 88° |
| 2026-05-05 19:29 | -35.43684 | 147.85667 | 25146 ft | 387 kts | 88° |
| 2026-05-05 19:30 | -35.43646 | 147.88913 | 24709 ft | 384 kts | 88° |
| 2026-05-05 19:30 | -35.43608 | 147.92214 | 24250 ft | 381 kts | 88° |
| 2026-05-05 19:30 | -35.43568 | 147.95414 | 23818 ft | 378 kts | 88° |
| 2026-05-05 19:30 | -35.43528 | 147.98621 | 23350 ft | 374 kts | 88° |
| 2026-05-05 19:31 | -35.43488 | 148.01799 | 22845 ft | 373 kts | 89° |
| 2026-05-05 19:31 | -35.43448 | 148.04960 | 22412 ft | 369 kts | 89° |
| 2026-05-05 19:31 | -35.43407 | 148.08092 | 21933 ft | 366 kts | 89° |
| 2026-05-05 19:31 | -35.43366 | 148.11190 | 21496 ft | 363 kts | 89° |
| 2026-05-05 19:32 | -35.43324 | 148.14274 | 21043 ft | 360 kts | 89° |
| 2026-05-05 19:32 | -35.43282 | 148.17322 | 20602 ft | 357 kts | 89° |
| 2026-05-05 19:32 | -35.43240 | 148.20351 | 20163 ft | 354 kts | 89° |
| 2026-05-05 19:32 | -35.43197 | 148.23362 | 19729 ft | 352 kts | 89° |
| 2026-05-05 19:33 | -35.43153 | 148.26356 | 19292 ft | 350 kts | 89° |
| 2026-05-05 19:33 | -35.42892 | 148.29315 | 18854 ft | 349 kts | 77° |
| 2026-05-05 19:33 | -35.42188 | 148.32108 | 18579 ft | 344 kts | 66° |
| 2026-05-05 19:33 | -35.41135 | 148.34763 | 18218 ft | 340 kts | 63° |
| 2026-05-05 19:34 | -35.40060 | 148.37287 | 17809 ft | 337 kts | 62° |
| 2026-05-05 19:34 | -35.38966 | 148.39817 | 17363 ft | 335 kts | 62° |
| 2026-05-05 19:34 | -35.37880 | 148.42329 | 16925 ft | 333 kts | 62° |
| 2026-05-05 19:35 | -35.35739 | 148.47320 | 16060 ft | 329 kts | 62° |
| 2026-05-05 19:35 | -35.34684 | 148.49795 | 15621 ft | 327 kts | 62° |
| 2026-05-05 19:35 | -35.33636 | 148.52255 | 15195 ft | 325 kts | 62° |
| 2026-05-05 19:35 | -35.32601 | 148.54687 | 14788 ft | 322 kts | 62° |
| 2026-05-05 19:36 | -35.31564 | 148.57123 | 14354 ft | 321 kts | 62° |
| 2026-05-05 19:36 | -35.30524 | 148.59565 | 13695 ft | 326 kts | 62° |
| 2026-05-05 19:36 | -35.29478 | 148.62022 | 13204 ft | 324 kts | 62° |
| 2026-05-05 19:36 | -35.28440 | 148.64459 | 12737 ft | 322 kts | 62° |
| 2026-05-05 19:37 | -35.27407 | 148.66883 | 12282 ft | 320 kts | 62° |
| 2026-05-05 19:37 | -35.26383 | 148.69283 | 11829 ft | 317 kts | 62° |
| 2026-05-05 19:37 | -35.25378 | 148.71637 | 11402 ft | 315 kts | 62° |
| 2026-05-05 19:37 | -35.24354 | 148.74034 | 10963 ft | 313 kts | 62° |
| 2026-05-05 19:38 | -35.23359 | 148.76361 | 10537 ft | 312 kts | 62° |
| 2026-05-05 19:38 | -35.22362 | 148.78692 | 10281 ft | 304 kts | 62° |
| 2026-05-05 19:38 | -35.21398 | 148.80944 | 10103 ft | 294 kts | 62° |
| 2026-05-05 19:38 | -35.20466 | 148.83120 | 9857 ft | 287 kts | 62° |
| 2026-05-05 19:39 | -35.19544 | 148.85272 | 9500 ft | 284 kts | 62° |
| 2026-05-05 19:39 | -35.18631 | 148.87400 | 9145 ft | 281 kts | 62° |
| 2026-05-05 19:39 | -35.17726 | 148.89508 | 8797 ft | 279 kts | 62° |
| 2026-05-05 19:39 | -35.16829 | 148.91597 | 8449 ft | 276 kts | 62° |
| 2026-05-05 19:40 | -35.15941 | 148.93664 | 8118 ft | 274 kts | 62° |
| 2026-05-05 19:40 | -35.15059 | 148.95717 | 7778 ft | 271 kts | 62° |
| 2026-05-05 19:40 | -35.14188 | 148.97744 | 7443 ft | 269 kts | 62° |
| 2026-05-05 19:40 | -35.13332 | 148.99732 | 7309 ft | 258 kts | 62° |
| 2026-05-05 19:41 | -35.12508 | 149.01645 | 7184 ft | 249 kts | 62° |
| 2026-05-05 19:41 | -35.11716 | 149.03480 | 7067 ft | 240 kts | 62° |
| 2026-05-05 19:41 | -35.10987 | 149.05272 | 6919 ft | 233 kts | 70° |
| 2026-05-05 19:41 | -35.10734 | 149.07219 | 6666 ft | 231 kts | 84° |
| 2026-05-05 19:42 | -35.10606 | 149.09174 | 6382 ft | 230 kts | 83° |
| 2026-05-05 19:42 | -35.10467 | 149.11115 | 6105 ft | 229 kts | 83° |
| 2026-05-05 19:42 | -35.10352 | 149.13030 | 5833 ft | 228 kts | 88° |
| 2026-05-05 19:42 | -35.10545 | 149.14959 | 5596 ft | 224 kts | 102° |
| 2026-05-05 19:43 | -35.11125 | 149.16706 | 5338 ft | 221 kts | 117° |
| 2026-05-05 19:43 | -35.12043 | 149.18165 | 5078 ft | 219 kts | 132° |
| 2026-05-05 19:43 | -35.13236 | 149.19285 | 4819 ft | 216 kts | 148° |
| 2026-05-05 19:43 | -35.14598 | 149.19991 | 4600 ft | 210 kts | 162° |
| 2026-05-05 19:44 | -35.16014 | 149.20259 | 4356 ft | 202 kts | 177° |
| 2026-05-05 19:44 | -35.17391 | 149.20120 | 4120 ft | 195 kts | 190° |
| 2026-05-05 19:44 | -35.18682 | 149.19741 | 3858 ft | 185 kts | 193° |
| 2026-05-05 19:44 | -35.19891 | 149.19476 | 3675 ft | 167 kts | 185° |
| 2026-05-05 19:45 | -35.20994 | 149.19418 | 3451 ft | 152 kts | 179° |
| 2026-05-05 19:45 | -35.22010 | 149.19424 | 3209 ft | 141 kts | 179° |
| 2026-05-05 19:45 | -35.22991 | 149.19430 | 3053 ft | 142 kts | 179° |
| 2026-05-05 19:45 | -35.23982 | 149.19434 | 2858 ft | 142 kts | 179° |
| 2026-05-05 19:46 | -35.24958 | 149.19436 | 2663 ft | 139 kts | 180° |
| 2026-05-05 19:46 | -35.25928 | 149.19447 | 2446 ft | 139 kts | 180° |
| 2026-05-05 19:46 | -35.26885 | 149.19438 | 2284 ft | 137 kts | 181° |
| 2026-05-05 19:46 | -35.27834 | 149.19434 | 2152 ft | 137 kts | 179° |
| 2026-05-05 19:47 | -35.28804 | 149.19439 | 2000 ft | 142 kts | 180° |
| 2026-05-05 19:47 | -35.29787 | 149.19443 | 1877 ft | 135 kts | 180° |
| 2026-05-05 19:47 | -35.30531 | 149.19444 | 1878 ft | 76 kts | 180° |
| 2026-05-05 19:47 | -35.30843 | 149.19445 | 1877 ft | 18 kts | 180° |
| 2026-05-05 19:48 | -35.30952 | 149.19436 | 1876 ft | 11 kts | 210° |
| 2026-05-05 19:48 | -35.30968 | 149.19380 | 1878 ft | 5 kts | 266° |
| 2026-05-05 19:48 | -35.30969 | 149.19348 | 1878 ft | 3 kts | 268° |
| 2026-05-05 19:48 | -35.30969 | 149.19323 | 1878 ft | 3 kts | 269° |
| 2026-05-05 19:49 | -35.30969 | 149.19297 | 1879 ft | 3 kts | 272° |
| 2026-05-05 19:49 | -35.30963 | 149.19265 | 1878 ft | 8 kts | 292° |
| 2026-05-05 19:49 | -35.30895 | 149.19239 | 1878 ft | 12 kts | 0° |
| 2026-05-05 19:49 | -35.30796 | 149.19239 | 1878 ft | 13 kts | 359° |
| 2026-05-05 19:50 | -35.30713 | 149.19237 | 1878 ft | 9 kts | 354° |
| 2026-05-05 19:50 | -35.30651 | 149.19184 | 1878 ft | 12 kts | 309° |
| 2026-05-05 19:50 | -35.30602 | 149.19109 | 1878 ft | 7 kts | 313° |
| 2026-05-05 19:50 | -35.30586 | 149.19087 | 1872 ft | 3 kts | 310° |
| 2026-05-05 19:51 | -35.30587 | 149.19064 | 1877 ft | 3 kts | 239° |
| 2026-05-05 19:51 | -35.30600 | 149.19048 | 1878 ft | 3 kts | 220° |
| 2026-05-05 19:51 | -35.30614 | 149.19034 | 1878 ft | 3 kts | 220° |
| 2026-05-05 19:51 | -35.30625 | 149.19023 | 1877 ft | 1 kts | 220° |
| 2026-05-05 19:52 | -35.30627 | 149.19021 | 1878 ft | 0 kts | 219° |